Historyczne dane pomiarowe

Dodano dane terminowe – wersja testowa.

Dane z okresu 1951-2019

Wersja bazy: 1.34 [2019-03-16, lista zmian], aktualizacja planowana na 2019-04-15

Dane meteo z obszaru Polski uzyskane na podstawie danych udostępnionych przez Instytut Meteorologii i Gospodarki Wodnej – Państwowy Instytut Badawczy.

 

Wybierz Datę:    

       

TemperaturaWilgotnośćWiatrCiśnienieOpadyŚniegCzas trwania zjawisk
 Stacja t tx tn tng RH VA  wxwx mslp ppp RRR   cm mm wxwxwxwxwxwxwx
2005-05-15 11.4 15.9 6.6 3.8 81.5- 7.7 2.7---- 8.0------------
2005-05-16 11.2 13.1 8.0 3.2 84.0- 5.0 3.7---- 0.0------------
2005-05-17 9.9 14.5 6.5 3.2 82.8- 6.7 1.3---- 6.1------------
2005-05-18 9.5 14.4 4.6 -0.4 76.5- 5.3 2.3---- 0.0------------
2005-05-19 8.4 14.0 2.6 -4.2 65.5- 1.0 4.0---- 0.0------------
2005-05-20 9.4 16.5 -1.6 -7.0 62.0- 0.7 1.7---- 0.0------------
2005-05-21 13.7 21.4 1.0 -4.6 57.8- 0.3 2.0---- 0.0------------
2005-05-22 18.5 24.3 11.0 3.8 59.3- 2.3 3.3---- 0.0------------
2005-05-23 18.7 24.4 12.5 9.0 63.0- 1.7 2.7---- 0.0------------
2005-05-24 16.1 20.8 12.0 7.1 81.5- 3.0 3.7---- 0.0------------
2005-05-25 15.2 22.9 3.0 -3.8 58.0- 2.3 2.3---- 0.0------------
2005-05-26 19.0 25.1 9.5 3.0 58.3- 2.7 2.7---- 0.0------------
2005-05-27 21.9 27.8 13.5 5.0 53.3- 2.0 2.7---- 0.0------------
2005-05-28 21.1 28.7 11.0 5.4 56.8- 0.0 1.3---- 0.0------------
2005-05-29 22.7 30.1 17.4 10.0 58.8- 0.7 3.0---- 0.0------------
2005-05-30 15.2 21.1 9.0 3.1 75.0- 3.3 3.0---- 4.8------------
2005-05-31 12.7 15.1 10.3 9.0 79.0- 5.7 3.3---- 1.5------------
2005-06-01 10.7 14.2 7.6 6.3 71.8- 4.7 4.3---- 1.0------------
2005-06-02 11.1 14.5 7.2 5.2 83.0- 6.7 2.3---- 2.4------------
2005-06-03 13.4 17.0 9.0 4.3 84.0- 7.3 2.0---- 0.1------------
2005-06-04 17.9 25.7 13.5 10.0 78.0- 6.0 3.3---- 6.9------------
2005-06-05 15.0 18.9 12.3 9.5 73.3- 2.3 3.0---- 0.3------------
2005-06-06 12.4 15.7 10.0 8.6 84.0- 7.3 2.3---- 1.1------------
2005-06-07 11.2 14.2 7.2 6.6 76.0- 6.3 1.0---- 0.1------------
2005-06-08 10.7 14.9 8.0 7.3 78.0- 7.0 6.0---- 1.2------------
2005-06-09 12.6 18.3 7.2 6.3 70.0- 5.0 2.7---- 0.0------------
2005-06-10 13.2 20.1 3.0 0.2 59.0- 1.3 1.7---- 0.0------------
2005-06-11 12.4 15.6 7.5 5.5 74.5- 7.0 2.0---- 2.0------------
2005-06-12 12.5 16.9 6.0 2.8 64.0- 3.0 2.3---- 0.0------------
2005-06-13 14.2 21.9 0.5 0.2 55.0- 2.7 2.3---- 4.2------------
182.7 ms

 

Źródłem pochodzenia danych jest Instytut Meteorologii i Gospodarki Wodnej – Państwowy Instytut Badawczy. Dane Instytutu Meteorologii i Gospodarki Wodnej – Państwowego Instytutu Badawczego zostały przetworzone.

Dane źródłowe można odnaleźć na stronie https://dane.imgw.pl